sensor_id;sensor_type;location;lat;lon;timestamp;P1;durP1;ratioP1;P2;durP2;ratioP2
13649;SDS011;6898;50.918;4.688;2022-10-16T00:01:44;2.40;;;1.73;;
13649;SDS011;6898;50.918;4.688;2022-10-16T00:04:13;4.03;;;1.70;;
13649;SDS011;6898;50.918;4.688;2022-10-16T00:06:42;2.42;;;1.90;;
13649;SDS011;6898;50.918;4.688;2022-10-16T00:09:10;2.57;;;1.70;;
13649;SDS011;6898;50.918;4.688;2022-10-16T00:11:39;2.63;;;1.70;;
13649;SDS011;6898;50.918;4.688;2022-10-16T00:14:08;2.60;;;1.90;;
13649;SDS011;6898;50.918;4.688;2022-10-16T00:16:37;3.10;;;1.70;;
13649;SDS011;6898;50.918;4.688;2022-10-16T00:19:07;2.85;;;1.77;;
13649;SDS011;6898;50.918;4.688;2022-10-16T00:21:37;2.10;;;1.60;;
13649;SDS011;6898;50.918;4.688;2022-10-16T00:24:06;2.08;;;1.48;;
13649;SDS011;6898;50.918;4.688;2022-10-16T00:26:35;3.83;;;1.70;;
13649;SDS011;6898;50.918;4.688;2022-10-16T00:29:04;2.60;;;1.60;;
13649;SDS011;6898;50.918;4.688;2022-10-16T00:31:33;2.70;;;1.63;;
13649;SDS011;6898;50.918;4.688;2022-10-16T00:34:01;2.65;;;1.60;;
13649;SDS011;6898;50.918;4.688;2022-10-16T00:36:31;2.90;;;1.70;;
13649;SDS011;6898;50.918;4.688;2022-10-16T00:38:59;2.50;;;1.60;;
13649;SDS011;6898;50.918;4.688;2022-10-16T00:41:28;3.55;;;1.73;;
13649;SDS011;6898;50.918;4.688;2022-10-16T00:43:57;2.85;;;1.50;;
13649;SDS011;6898;50.918;4.688;2022-10-16T00:46:27;3.40;;;1.70;;
13649;SDS011;6898;50.918;4.688;2022-10-16T00:48:57;2.85;;;1.50;;
13649;SDS011;6898;50.918;4.688;2022-10-16T00:51:28;1.70;;;1.42;;
13649;SDS011;6898;50.918;4.688;2022-10-16T00:53:59;2.13;;;1.52;;
13649;SDS011;6898;50.918;4.688;2022-10-16T00:56:28;2.35;;;1.50;;
13649;SDS011;6898;50.918;4.688;2022-10-16T00:58:56;1.90;;;1.48;;
13649;SDS011;6898;50.918;4.688;2022-10-16T01:01:25;1.90;;;1.40;;
13649;SDS011;6898;50.918;4.688;2022-10-16T01:03:53;2.08;;;1.60;;
13649;SDS011;6898;50.918;4.688;2022-10-16T01:06:23;2.22;;;1.50;;
13649;SDS011;6898;50.918;4.688;2022-10-16T01:08:55;3.03;;;1.58;;
13649;SDS011;6898;50.918;4.688;2022-10-16T01:11:27;2.67;;;1.58;;
13649;SDS011;6898;50.918;4.688;2022-10-16T01:14:00;1.85;;;1.50;;
13649;SDS011;6898;50.918;4.688;2022-10-16T01:16:33;1.75;;;1.40;;
13649;SDS011;6898;50.918;4.688;2022-10-16T01:19:05;2.45;;;1.50;;
13649;SDS011;6898;50.918;4.688;2022-10-16T01:21:38;5.18;;;1.80;;
13649;SDS011;6898;50.918;4.688;2022-10-16T01:24:09;1.85;;;1.60;;
13649;SDS011;6898;50.918;4.688;2022-10-16T01:26:44;4.00;;;1.60;;
13649;SDS011;6898;50.918;4.688;2022-10-16T01:29:20;2.75;;;1.60;;
13649;SDS011;6898;50.918;4.688;2022-10-16T01:31:53;2.95;;;1.60;;
13649;SDS011;6898;50.918;4.688;2022-10-16T01:34:22;2.25;;;1.50;;
13649;SDS011;6898;50.918;4.688;2022-10-16T01:36:55;3.90;;;1.70;;
13649;SDS011;6898;50.918;4.688;2022-10-16T01:39:24;3.10;;;1.65;;
13649;SDS011;6898;50.918;4.688;2022-10-16T01:41:54;2.60;;;1.70;;
13649;SDS011;6898;50.918;4.688;2022-10-16T01:44:25;2.20;;;1.53;;
13649;SDS011;6898;50.918;4.688;2022-10-16T01:46:57;3.30;;;1.70;;
13649;SDS011;6898;50.918;4.688;2022-10-16T01:49:26;3.38;;;1.77;;
13649;SDS011;6898;50.918;4.688;2022-10-16T01:51:56;3.67;;;1.83;;
13649;SDS011;6898;50.918;4.688;2022-10-16T01:54:35;2.72;;;1.77;;
13649;SDS011;6898;50.918;4.688;2022-10-16T01:57:04;2.90;;;1.70;;
13649;SDS011;6898;50.918;4.688;2022-10-16T01:59:37;3.40;;;1.60;;
13649;SDS011;6898;50.918;4.688;2022-10-16T02:02:07;2.17;;;1.70;;
13649;SDS011;6898;50.918;4.688;2022-10-16T02:04:38;3.38;;;1.85;;
13649;SDS011;6898;50.918;4.688;2022-10-16T02:07:07;5.30;;;1.90;;
13649;SDS011;6898;50.918;4.688;2022-10-16T02:09:36;3.15;;;1.70;;
13649;SDS011;6898;50.918;4.688;2022-10-16T02:12:06;4.80;;;1.80;;
13649;SDS011;6898;50.918;4.688;2022-10-16T02:14:38;3.30;;;1.80;;
13649;SDS011;6898;50.918;4.688;2022-10-16T02:17:11;4.32;;;1.85;;
13649;SDS011;6898;50.918;4.688;2022-10-16T02:19:40;3.53;;;2.00;;
13649;SDS011;6898;50.918;4.688;2022-10-16T02:22:09;2.70;;;1.70;;
13649;SDS011;6898;50.918;4.688;2022-10-16T02:24:46;3.65;;;2.00;;
13649;SDS011;6898;50.918;4.688;2022-10-16T02:27:17;2.72;;;1.67;;
13649;SDS011;6898;50.918;4.688;2022-10-16T02:29:49;2.60;;;1.80;;
13649;SDS011;6898;50.918;4.688;2022-10-16T02:32:23;1.77;;;1.63;;
13649;SDS011;6898;50.918;4.688;2022-10-16T02:34:52;3.20;;;2.00;;
13649;SDS011;6898;50.918;4.688;2022-10-16T02:37:21;3.33;;;2.10;;
13649;SDS011;6898;50.918;4.688;2022-10-16T02:39:49;3.03;;;1.98;;
13649;SDS011;6898;50.918;4.688;2022-10-16T02:42:18;3.87;;;1.90;;
13649;SDS011;6898;50.918;4.688;2022-10-16T02:44:46;3.20;;;1.90;;
13649;SDS011;6898;50.918;4.688;2022-10-16T02:47:16;4.35;;;1.90;;
13649;SDS011;6898;50.918;4.688;2022-10-16T02:49:44;2.60;;;1.80;;
13649;SDS011;6898;50.918;4.688;2022-10-16T02:52:13;3.45;;;2.10;;
13649;SDS011;6898;50.918;4.688;2022-10-16T02:54:41;2.53;;;1.80;;
13649;SDS011;6898;50.918;4.688;2022-10-16T02:57:10;3.05;;;1.92;;
13649;SDS011;6898;50.918;4.688;2022-10-16T02:59:38;3.35;;;1.95;;
13649;SDS011;6898;50.918;4.688;2022-10-16T03:02:07;3.15;;;2.00;;
13649;SDS011;6898;50.918;4.688;2022-10-16T03:04:37;4.15;;;2.10;;
13649;SDS011;6898;50.918;4.688;2022-10-16T03:07:05;3.55;;;1.90;;
13649;SDS011;6898;50.918;4.688;2022-10-16T03:09:34;2.58;;;2.00;;
13649;SDS011;6898;50.918;4.688;2022-10-16T03:12:02;2.63;;;1.93;;
13649;SDS011;6898;50.918;4.688;2022-10-16T03:14:31;2.65;;;2.00;;
13649;SDS011;6898;50.918;4.688;2022-10-16T03:16:59;3.20;;;2.10;;
13649;SDS011;6898;50.918;4.688;2022-10-16T03:19:27;3.10;;;1.95;;
13649;SDS011;6898;50.918;4.688;2022-10-16T03:21:57;3.35;;;1.90;;
13649;SDS011;6898;50.918;4.688;2022-10-16T03:24:26;3.88;;;2.10;;
13649;SDS011;6898;50.918;4.688;2022-10-16T03:26:54;3.72;;;2.17;;
13649;SDS011;6898;50.918;4.688;2022-10-16T03:29:23;2.85;;;2.00;;
13649;SDS011;6898;50.918;4.688;2022-10-16T03:31:52;3.55;;;2.05;;
13649;SDS011;6898;50.918;4.688;2022-10-16T03:34:20;2.47;;;2.10;;
13649;SDS011;6898;50.918;4.688;2022-10-16T03:36:48;4.47;;;2.13;;
13649;SDS011;6898;50.918;4.688;2022-10-16T03:39:18;3.28;;;2.30;;
13649;SDS011;6898;50.918;4.688;2022-10-16T03:41:47;3.15;;;2.08;;
13649;SDS011;6898;50.918;4.688;2022-10-16T03:44:15;3.08;;;2.08;;
13649;SDS011;6898;50.918;4.688;2022-10-16T03:46:43;2.67;;;2.00;;
13649;SDS011;6898;50.918;4.688;2022-10-16T03:49:12;4.28;;;2.20;;
13649;SDS011;6898;50.918;4.688;2022-10-16T03:51:40;3.72;;;2.20;;
13649;SDS011;6898;50.918;4.688;2022-10-16T03:54:09;2.50;;;2.13;;
13649;SDS011;6898;50.918;4.688;2022-10-16T03:56:39;2.78;;;2.30;;
13649;SDS011;6898;50.918;4.688;2022-10-16T03:59:07;3.60;;;2.30;;
13649;SDS011;6898;50.918;4.688;2022-10-16T04:01:35;3.25;;;2.13;;
13649;SDS011;6898;50.918;4.688;2022-10-16T04:04:04;3.13;;;2.25;;
13649;SDS011;6898;50.918;4.688;2022-10-16T04:06:32;3.88;;;2.22;;
13649;SDS011;6898;50.918;4.688;2022-10-16T04:09:01;3.08;;;2.20;;
13649;SDS011;6898;50.918;4.688;2022-10-16T04:11:29;4.22;;;2.22;;
13649;SDS011;6898;50.918;4.688;2022-10-16T04:13:59;3.58;;;2.30;;
13649;SDS011;6898;50.918;4.688;2022-10-16T04:16:28;4.03;;;2.30;;
13649;SDS011;6898;50.918;4.688;2022-10-16T04:18:56;3.67;;;2.22;;
13649;SDS011;6898;50.918;4.688;2022-10-16T04:21:24;3.95;;;2.20;;
13649;SDS011;6898;50.918;4.688;2022-10-16T04:23:53;4.00;;;2.10;;
13649;SDS011;6898;50.918;4.688;2022-10-16T04:26:21;2.45;;;2.20;;
13649;SDS011;6898;50.918;4.688;2022-10-16T04:28:50;3.38;;;2.30;;
13649;SDS011;6898;50.918;4.688;2022-10-16T04:31:19;4.80;;;2.35;;
13649;SDS011;6898;50.918;4.688;2022-10-16T04:33:48;2.95;;;2.30;;
13649;SDS011;6898;50.918;4.688;2022-10-16T04:36:16;3.53;;;2.50;;
13649;SDS011;6898;50.918;4.688;2022-10-16T04:38:44;3.85;;;2.40;;
13649;SDS011;6898;50.918;4.688;2022-10-16T04:41:13;3.47;;;2.30;;
13649;SDS011;6898;50.918;4.688;2022-10-16T04:43:41;3.05;;;2.40;;
13649;SDS011;6898;50.918;4.688;2022-10-16T04:46:10;4.95;;;2.42;;
13649;SDS011;6898;50.918;4.688;2022-10-16T04:48:39;3.42;;;2.33;;
13649;SDS011;6898;50.918;4.688;2022-10-16T04:51:08;3.38;;;2.25;;
13649;SDS011;6898;50.918;4.688;2022-10-16T04:53:36;3.90;;;2.40;;
13649;SDS011;6898;50.918;4.688;2022-10-16T04:56:05;4.22;;;2.70;;
13649;SDS011;6898;50.918;4.688;2022-10-16T04:58:33;3.90;;;2.72;;
13649;SDS011;6898;50.918;4.688;2022-10-16T05:01:02;3.78;;;2.55;;
13649;SDS011;6898;50.918;4.688;2022-10-16T05:03:30;4.72;;;2.58;;
13649;SDS011;6898;50.918;4.688;2022-10-16T05:06:00;4.87;;;2.73;;
13649;SDS011;6898;50.918;4.688;2022-10-16T05:08:30;5.40;;;2.63;;
13649;SDS011;6898;50.918;4.688;2022-10-16T05:10:58;4.00;;;2.75;;
13649;SDS011;6898;50.918;4.688;2022-10-16T05:13:27;4.68;;;2.63;;
13649;SDS011;6898;50.918;4.688;2022-10-16T05:15:56;4.00;;;2.53;;
13649;SDS011;6898;50.918;4.688;2022-10-16T05:18:24;4.20;;;2.65;;
13649;SDS011;6898;50.918;4.688;2022-10-16T05:20:53;4.63;;;2.70;;
13649;SDS011;6898;50.918;4.688;2022-10-16T05:23:22;6.65;;;3.03;;
13649;SDS011;6898;50.918;4.688;2022-10-16T05:25:54;5.57;;;2.75;;
13649;SDS011;6898;50.918;4.688;2022-10-16T05:28:24;2.95;;;2.60;;
13649;SDS011;6898;50.918;4.688;2022-10-16T05:30:53;4.30;;;2.80;;
13649;SDS011;6898;50.918;4.688;2022-10-16T05:33:22;5.50;;;2.80;;
13649;SDS011;6898;50.918;4.688;2022-10-16T05:35:50;4.50;;;2.90;;
13649;SDS011;6898;50.918;4.688;2022-10-16T05:38:18;5.55;;;2.88;;
13649;SDS011;6898;50.918;4.688;2022-10-16T05:40:51;6.03;;;2.85;;
13649;SDS011;6898;50.918;4.688;2022-10-16T05:43:20;5.20;;;3.05;;
13649;SDS011;6898;50.918;4.688;2022-10-16T05:45:55;7.82;;;3.08;;
13649;SDS011;6898;50.918;4.688;2022-10-16T05:48:23;4.65;;;2.85;;
13649;SDS011;6898;50.918;4.688;2022-10-16T05:50:58;4.68;;;2.97;;
13649;SDS011;6898;50.918;4.688;2022-10-16T05:53:27;6.20;;;2.80;;
13649;SDS011;6898;50.918;4.688;2022-10-16T05:55:57;5.72;;;2.70;;
13649;SDS011;6898;50.918;4.688;2022-10-16T05:58:27;3.90;;;2.80;;
13649;SDS011;6898;50.918;4.688;2022-10-16T06:00:56;6.03;;;2.90;;
13649;SDS011;6898;50.918;4.688;2022-10-16T06:03:25;4.72;;;2.70;;
13649;SDS011;6898;50.918;4.688;2022-10-16T06:05:54;4.57;;;2.90;;
13649;SDS011;6898;50.918;4.688;2022-10-16T06:08:25;5.07;;;2.83;;
13649;SDS011;6898;50.918;4.688;2022-10-16T06:11:01;5.45;;;3.00;;
13649;SDS011;6898;50.918;4.688;2022-10-16T06:13:30;5.32;;;3.22;;
13649;SDS011;6898;50.918;4.688;2022-10-16T06:15:58;5.88;;;2.92;;
13649;SDS011;6898;50.918;4.688;2022-10-16T06:18:27;4.97;;;2.97;;
13649;SDS011;6898;50.918;4.688;2022-10-16T06:20:56;6.20;;;3.20;;
13649;SDS011;6898;50.918;4.688;2022-10-16T06:23:25;5.47;;;2.95;;
13649;SDS011;6898;50.918;4.688;2022-10-16T06:25:53;6.53;;;3.20;;
13649;SDS011;6898;50.918;4.688;2022-10-16T06:28:23;4.47;;;2.90;;
13649;SDS011;6898;50.918;4.688;2022-10-16T06:30:58;3.25;;;2.83;;
13649;SDS011;6898;50.918;4.688;2022-10-16T06:33:27;3.35;;;3.05;;
13649;SDS011;6898;50.918;4.688;2022-10-16T06:35:59;4.47;;;3.00;;
13649;SDS011;6898;50.918;4.688;2022-10-16T06:38:28;6.55;;;3.38;;
13649;SDS011;6898;50.918;4.688;2022-10-16T06:40:57;4.60;;;3.08;;
13649;SDS011;6898;50.918;4.688;2022-10-16T06:43:27;5.75;;;3.05;;
13649;SDS011;6898;50.918;4.688;2022-10-16T06:45:59;3.65;;;3.10;;
13649;SDS011;6898;50.918;4.688;2022-10-16T06:48:28;5.07;;;3.20;;
13649;SDS011;6898;50.918;4.688;2022-10-16T06:51:00;5.28;;;3.00;;
13649;SDS011;6898;50.918;4.688;2022-10-16T06:53:34;6.47;;;3.15;;
13649;SDS011;6898;50.918;4.688;2022-10-16T06:56:08;5.07;;;3.22;;
13649;SDS011;6898;50.918;4.688;2022-10-16T06:58:37;4.40;;;3.17;;
13649;SDS011;6898;50.918;4.688;2022-10-16T07:01:06;6.07;;;3.00;;
13649;SDS011;6898;50.918;4.688;2022-10-16T07:03:35;4.20;;;3.20;;
13649;SDS011;6898;50.918;4.688;2022-10-16T07:06:04;4.95;;;3.20;;
13649;SDS011;6898;50.918;4.688;2022-10-16T07:08:33;4.47;;;3.10;;
13649;SDS011;6898;50.918;4.688;2022-10-16T07:11:03;4.60;;;3.10;;
13649;SDS011;6898;50.918;4.688;2022-10-16T07:13:32;5.70;;;3.00;;
13649;SDS011;6898;50.918;4.688;2022-10-16T07:16:05;4.03;;;3.03;;
13649;SDS011;6898;50.918;4.688;2022-10-16T07:18:33;6.72;;;3.10;;
13649;SDS011;6898;50.918;4.688;2022-10-16T07:21:03;4.50;;;2.90;;
13649;SDS011;6898;50.918;4.688;2022-10-16T07:23:31;5.78;;;2.90;;
13649;SDS011;6898;50.918;4.688;2022-10-16T07:26:02;5.30;;;3.17;;
13649;SDS011;6898;50.918;4.688;2022-10-16T07:28:31;5.88;;;3.17;;
13649;SDS011;6898;50.918;4.688;2022-10-16T07:31:00;5.75;;;2.90;;
13649;SDS011;6898;50.918;4.688;2022-10-16T07:33:30;3.95;;;3.10;;
13649;SDS011;6898;50.918;4.688;2022-10-16T07:35:59;5.95;;;3.85;;
13649;SDS011;6898;50.918;4.688;2022-10-16T07:38:27;5.78;;;3.70;;
13649;SDS011;6898;50.918;4.688;2022-10-16T07:40:56;6.13;;;3.33;;
13649;SDS011;6898;50.918;4.688;2022-10-16T07:43:25;6.68;;;3.40;;
13649;SDS011;6898;50.918;4.688;2022-10-16T07:45:53;4.68;;;3.00;;
13649;SDS011;6898;50.918;4.688;2022-10-16T07:48:23;4.68;;;3.17;;
13649;SDS011;6898;50.918;4.688;2022-10-16T07:50:56;5.53;;;2.90;;
13649;SDS011;6898;50.918;4.688;2022-10-16T07:53:24;4.80;;;2.95;;
13649;SDS011;6898;50.918;4.688;2022-10-16T07:55:56;6.68;;;2.83;;
13649;SDS011;6898;50.918;4.688;2022-10-16T07:58:25;4.43;;;2.60;;
13649;SDS011;6898;50.918;4.688;2022-10-16T08:00:54;4.45;;;3.40;;
13649;SDS011;6898;50.918;4.688;2022-10-16T08:03:22;5.23;;;3.30;;
13649;SDS011;6898;50.918;4.688;2022-10-16T08:05:52;4.07;;;2.88;;
13649;SDS011;6898;50.918;4.688;2022-10-16T08:08:23;5.70;;;2.90;;
13649;SDS011;6898;50.918;4.688;2022-10-16T08:10:52;5.17;;;2.50;;
13649;SDS011;6898;50.918;4.688;2022-10-16T08:13:20;4.28;;;2.63;;
13649;SDS011;6898;50.918;4.688;2022-10-16T08:15:49;3.42;;;2.50;;
13649;SDS011;6898;50.918;4.688;2022-10-16T08:18:17;4.05;;;2.60;;
13649;SDS011;6898;50.918;4.688;2022-10-16T08:20:46;3.78;;;2.22;;
13649;SDS011;6898;50.918;4.688;2022-10-16T08:23:15;4.40;;;2.53;;
13649;SDS011;6898;50.918;4.688;2022-10-16T08:25:44;5.07;;;2.38;;
13649;SDS011;6898;50.918;4.688;2022-10-16T08:28:12;5.07;;;2.20;;
13649;SDS011;6898;50.918;4.688;2022-10-16T08:30:46;5.25;;;2.33;;
13649;SDS011;6898;50.918;4.688;2022-10-16T08:33:14;4.45;;;2.22;;
13649;SDS011;6898;50.918;4.688;2022-10-16T08:35:43;5.13;;;2.20;;
13649;SDS011;6898;50.918;4.688;2022-10-16T08:38:20;6.13;;;2.13;;
13649;SDS011;6898;50.918;4.688;2022-10-16T08:40:48;5.88;;;2.03;;
13649;SDS011;6898;50.918;4.688;2022-10-16T08:43:21;5.13;;;2.23;;
13649;SDS011;6898;50.918;4.688;2022-10-16T08:46:05;5.93;;;2.20;;
13649;SDS011;6898;50.918;4.688;2022-10-16T08:48:41;4.60;;;2.22;;
13649;SDS011;6898;50.918;4.688;2022-10-16T08:51:12;5.13;;;2.40;;
13649;SDS011;6898;50.918;4.688;2022-10-16T08:53:48;5.15;;;1.90;;
13649;SDS011;6898;50.918;4.688;2022-10-16T08:56:17;3.80;;;2.00;;
13649;SDS011;6898;50.918;4.688;2022-10-16T08:58:46;3.97;;;1.87;;
13649;SDS011;6898;50.918;4.688;2022-10-16T09:01:16;5.70;;;2.10;;
13649;SDS011;6898;50.918;4.688;2022-10-16T09:03:54;4.18;;;2.00;;
13649;SDS011;6898;50.918;4.688;2022-10-16T09:06:26;4.63;;;1.80;;
13649;SDS011;6898;50.918;4.688;2022-10-16T09:09:08;3.25;;;1.92;;
13649;SDS011;6898;50.918;4.688;2022-10-16T09:11:41;3.60;;;1.70;;
13649;SDS011;6898;50.918;4.688;2022-10-16T09:14:17;5.65;;;1.90;;
13649;SDS011;6898;50.918;4.688;2022-10-16T09:16:48;6.50;;;2.00;;
13649;SDS011;6898;50.918;4.688;2022-10-16T09:19:20;5.20;;;1.90;;
13649;SDS011;6898;50.918;4.688;2022-10-16T09:21:51;5.05;;;1.80;;
13649;SDS011;6898;50.918;4.688;2022-10-16T09:24:21;4.65;;;2.00;;
13649;SDS011;6898;50.918;4.688;2022-10-16T09:26:52;5.55;;;2.05;;
13649;SDS011;6898;50.918;4.688;2022-10-16T09:29:20;4.68;;;1.90;;
13649;SDS011;6898;50.918;4.688;2022-10-16T09:31:51;4.88;;;2.03;;
13649;SDS011;6898;50.918;4.688;2022-10-16T09:34:23;4.63;;;1.80;;
13649;SDS011;6898;50.918;4.688;2022-10-16T09:36:53;4.72;;;1.80;;
13649;SDS011;6898;50.918;4.688;2022-10-16T09:39:23;4.78;;;1.80;;
13649;SDS011;6898;50.918;4.688;2022-10-16T09:41:51;5.20;;;1.70;;
13649;SDS011;6898;50.918;4.688;2022-10-16T09:44:21;3.80;;;1.60;;
13649;SDS011;6898;50.918;4.688;2022-10-16T09:47:00;6.55;;;1.60;;
13649;SDS011;6898;50.918;4.688;2022-10-16T09:49:28;4.65;;;1.50;;
13649;SDS011;6898;50.918;4.688;2022-10-16T09:52:04;5.83;;;1.70;;
13649;SDS011;6898;50.918;4.688;2022-10-16T09:54:33;5.20;;;1.70;;
13649;SDS011;6898;50.918;4.688;2022-10-16T09:57:05;6.45;;;1.80;;
13649;SDS011;6898;50.918;4.688;2022-10-16T09:59:34;5.25;;;1.83;;
13649;SDS011;6898;50.918;4.688;2022-10-16T10:02:03;6.27;;;1.80;;
13649;SDS011;6898;50.918;4.688;2022-10-16T10:04:37;4.97;;;1.53;;
13649;SDS011;6898;50.918;4.688;2022-10-16T10:07:06;6.18;;;1.80;;
13649;SDS011;6898;50.918;4.688;2022-10-16T10:09:46;6.80;;;1.83;;
13649;SDS011;6898;50.918;4.688;2022-10-16T10:12:16;4.68;;;1.90;;
13649;SDS011;6898;50.918;4.688;2022-10-16T10:14:46;5.82;;;1.83;;
13649;SDS011;6898;50.918;4.688;2022-10-16T10:17:16;5.05;;;1.70;;
13649;SDS011;6898;50.918;4.688;2022-10-16T10:19:47;5.63;;;2.00;;
13649;SDS011;6898;50.918;4.688;2022-10-16T10:22:25;4.85;;;1.88;;
13649;SDS011;6898;50.918;4.688;2022-10-16T10:24:56;8.38;;;2.03;;
13649;SDS011;6898;50.918;4.688;2022-10-16T10:27:26;6.05;;;1.77;;
13649;SDS011;6898;50.918;4.688;2022-10-16T10:29:59;5.78;;;1.80;;
13649;SDS011;6898;50.918;4.688;2022-10-16T10:32:30;5.65;;;1.77;;
13649;SDS011;6898;50.918;4.688;2022-10-16T10:35:07;3.65;;;1.60;;
13649;SDS011;6898;50.918;4.688;2022-10-16T10:37:44;4.72;;;1.90;;
13649;SDS011;6898;50.918;4.688;2022-10-16T10:40:22;4.10;;;1.67;;
13649;SDS011;6898;50.918;4.688;2022-10-16T10:42:54;4.20;;;1.90;;
13649;SDS011;6898;50.918;4.688;2022-10-16T10:45:26;5.95;;;1.58;;
13649;SDS011;6898;50.918;4.688;2022-10-16T10:50:42;5.30;;;1.80;;
13649;SDS011;6898;50.918;4.688;2022-10-16T10:53:16;4.38;;;1.50;;
13649;SDS011;6898;50.918;4.688;2022-10-16T10:55:48;4.10;;;1.70;;
13649;SDS011;6898;50.918;4.688;2022-10-16T11:01:13;4.47;;;1.50;;
13649;SDS011;6898;50.918;4.688;2022-10-16T11:03:58;4.47;;;1.50;;
13649;SDS011;6898;50.918;4.688;2022-10-16T11:06:36;3.47;;;1.48;;
13649;SDS011;6898;50.918;4.688;2022-10-16T11:09:09;6.03;;;1.70;;
13649;SDS011;6898;50.918;4.688;2022-10-16T11:11:42;4.28;;;1.50;;
13649;SDS011;6898;50.918;4.688;2022-10-16T11:14:14;3.28;;;1.60;;
13649;SDS011;6898;50.918;4.688;2022-10-16T11:16:45;3.85;;;1.60;;
13649;SDS011;6898;50.918;4.688;2022-10-16T11:19:19;5.13;;;1.60;;
13649;SDS011;6898;50.918;4.688;2022-10-16T11:21:51;4.50;;;1.63;;
13649;SDS011;6898;50.918;4.688;2022-10-16T11:24:23;3.15;;;1.40;;
13649;SDS011;6898;50.918;4.688;2022-10-16T11:26:59;4.28;;;1.58;;
13649;SDS011;6898;50.918;4.688;2022-10-16T11:29:32;4.63;;;1.70;;
13649;SDS011;6898;50.918;4.688;2022-10-16T11:32:05;3.13;;;1.30;;
13649;SDS011;6898;50.918;4.688;2022-10-16T11:34:35;4.13;;;1.58;;
13649;SDS011;6898;50.918;4.688;2022-10-16T11:37:08;5.77;;;1.57;;
13649;SDS011;6898;50.918;4.688;2022-10-16T11:39:44;5.03;;;1.50;;
13649;SDS011;6898;50.918;4.688;2022-10-16T11:42:16;3.95;;;1.70;;
13649;SDS011;6898;50.918;4.688;2022-10-16T11:44:50;4.03;;;1.43;;
13649;SDS011;6898;50.918;4.688;2022-10-16T11:47:24;5.65;;;1.48;;
13649;SDS011;6898;50.918;4.688;2022-10-16T11:50:20;3.60;;;1.40;;
13649;SDS011;6898;50.918;4.688;2022-10-16T11:52:52;4.20;;;1.67;;
13649;SDS011;6898;50.918;4.688;2022-10-16T11:55:22;4.82;;;1.58;;
13649;SDS011;6898;50.918;4.688;2022-10-16T11:57:53;3.55;;;1.48;;
13649;SDS011;6898;50.918;4.688;2022-10-16T12:00:23;4.18;;;1.50;;
13649;SDS011;6898;50.918;4.688;2022-10-16T12:02:54;3.53;;;1.50;;
13649;SDS011;6898;50.918;4.688;2022-10-16T12:05:25;4.70;;;1.60;;
13649;SDS011;6898;50.918;4.688;2022-10-16T12:08:02;4.88;;;1.58;;
13649;SDS011;6898;50.918;4.688;2022-10-16T12:10:33;3.63;;;1.60;;
13649;SDS011;6898;50.918;4.688;2022-10-16T12:13:25;3.28;;;1.50;;
13649;SDS011;6898;50.918;4.688;2022-10-16T12:16:03;5.80;;;1.55;;
13649;SDS011;6898;50.918;4.688;2022-10-16T12:18:32;3.65;;;1.50;;
13649;SDS011;6898;50.918;4.688;2022-10-16T12:21:00;3.72;;;1.40;;
13649;SDS011;6898;50.918;4.688;2022-10-16T12:23:33;6.15;;;1.70;;
13649;SDS011;6898;50.918;4.688;2022-10-16T12:26:05;4.63;;;1.55;;
13649;SDS011;6898;50.918;4.688;2022-10-16T12:28:35;4.45;;;1.60;;
13649;SDS011;6898;50.918;4.688;2022-10-16T12:31:06;2.92;;;1.50;;
13649;SDS011;6898;50.918;4.688;2022-10-16T12:33:36;4.20;;;1.60;;
13649;SDS011;6898;50.918;4.688;2022-10-16T12:36:07;3.10;;;1.40;;
13649;SDS011;6898;50.918;4.688;2022-10-16T12:38:38;4.53;;;1.70;;
13649;SDS011;6898;50.918;4.688;2022-10-16T12:41:23;3.72;;;1.60;;
13649;SDS011;6898;50.918;4.688;2022-10-16T12:43:53;3.25;;;1.42;;
13649;SDS011;6898;50.918;4.688;2022-10-16T12:46:23;3.57;;;1.60;;
13649;SDS011;6898;50.918;4.688;2022-10-16T12:48:52;4.50;;;1.55;;
13649;SDS011;6898;50.918;4.688;2022-10-16T12:51:34;3.30;;;1.52;;
13649;SDS011;6898;50.918;4.688;2022-10-16T12:54:04;3.35;;;1.50;;
13649;SDS011;6898;50.918;4.688;2022-10-16T12:56:36;4.10;;;1.60;;
13649;SDS011;6898;50.918;4.688;2022-10-16T12:59:11;3.42;;;1.50;;
13649;SDS011;6898;50.918;4.688;2022-10-16T13:01:43;4.47;;;1.60;;
13649;SDS011;6898;50.918;4.688;2022-10-16T13:04:21;5.78;;;1.60;;
13649;SDS011;6898;50.918;4.688;2022-10-16T13:06:53;3.97;;;1.33;;
13649;SDS011;6898;50.918;4.688;2022-10-16T13:09:28;4.53;;;1.73;;
13649;SDS011;6898;50.918;4.688;2022-10-16T13:12:05;3.67;;;1.50;;
13649;SDS011;6898;50.918;4.688;2022-10-16T13:14:43;3.38;;;1.70;;
13649;SDS011;6898;50.918;4.688;2022-10-16T13:17:15;2.13;;;1.40;;
13649;SDS011;6898;50.918;4.688;2022-10-16T13:19:48;5.00;;;1.42;;
13649;SDS011;6898;50.918;4.688;2022-10-16T13:22:24;4.18;;;1.52;;
13649;SDS011;6898;50.918;4.688;2022-10-16T13:24:56;4.05;;;1.52;;
13649;SDS011;6898;50.918;4.688;2022-10-16T13:27:29;4.70;;;1.40;;
13649;SDS011;6898;50.918;4.688;2022-10-16T13:30:07;4.05;;;1.50;;
13649;SDS011;6898;50.918;4.688;2022-10-16T13:32:37;3.53;;;1.60;;
13649;SDS011;6898;50.918;4.688;2022-10-16T13:35:18;3.72;;;1.50;;
13649;SDS011;6898;50.918;4.688;2022-10-16T13:37:46;4.15;;;1.60;;
13649;SDS011;6898;50.918;4.688;2022-10-16T13:40:19;3.65;;;1.45;;
13649;SDS011;6898;50.918;4.688;2022-10-16T13:42:48;3.80;;;1.50;;
13649;SDS011;6898;50.918;4.688;2022-10-16T13:45:19;4.00;;;1.58;;
13649;SDS011;6898;50.918;4.688;2022-10-16T13:47:47;3.10;;;1.30;;
13649;SDS011;6898;50.918;4.688;2022-10-16T13:50:17;3.60;;;1.60;;
13649;SDS011;6898;50.918;4.688;2022-10-16T13:52:45;3.53;;;1.40;;
13649;SDS011;6898;50.918;4.688;2022-10-16T13:55:16;4.07;;;1.50;;
13649;SDS011;6898;50.918;4.688;2022-10-16T13:57:45;3.22;;;1.50;;
13649;SDS011;6898;50.918;4.688;2022-10-16T14:00:19;4.03;;;1.80;;
13649;SDS011;6898;50.918;4.688;2022-10-16T14:02:50;4.90;;;2.65;;
13649;SDS011;6898;50.918;4.688;2022-10-16T14:05:19;7.15;;;1.90;;
13649;SDS011;6898;50.918;4.688;2022-10-16T14:07:49;4.97;;;1.70;;
13649;SDS011;6898;50.918;4.688;2022-10-16T14:10:19;3.60;;;1.75;;
13649;SDS011;6898;50.918;4.688;2022-10-16T14:12:54;4.03;;;1.80;;
13649;SDS011;6898;50.918;4.688;2022-10-16T14:15:26;4.70;;;1.83;;
13649;SDS011;6898;50.918;4.688;2022-10-16T14:17:54;4.85;;;1.90;;
13649;SDS011;6898;50.918;4.688;2022-10-16T14:20:24;5.97;;;1.75;;
13649;SDS011;6898;50.918;4.688;2022-10-16T14:23:00;4.65;;;1.80;;
13649;SDS011;6898;50.918;4.688;2022-10-16T14:25:29;6.60;;;1.70;;
13649;SDS011;6898;50.918;4.688;2022-10-16T14:27:59;3.72;;;1.70;;
13649;SDS011;6898;50.918;4.688;2022-10-16T14:30:29;2.25;;;1.50;;
13649;SDS011;6898;50.918;4.688;2022-10-16T14:32:58;3.90;;;1.83;;
13649;SDS011;6898;50.918;4.688;2022-10-16T14:35:29;4.90;;;1.83;;
13649;SDS011;6898;50.918;4.688;2022-10-16T14:37:58;4.85;;;1.80;;
13649;SDS011;6898;50.918;4.688;2022-10-16T14:40:27;3.42;;;1.58;;
13649;SDS011;6898;50.918;4.688;2022-10-16T14:42:56;3.65;;;1.80;;
13649;SDS011;6898;50.918;4.688;2022-10-16T14:45:26;3.47;;;1.70;;
13649;SDS011;6898;50.918;4.688;2022-10-16T14:47:57;3.78;;;1.60;;
13649;SDS011;6898;50.918;4.688;2022-10-16T14:50:27;5.95;;;2.00;;
13649;SDS011;6898;50.918;4.688;2022-10-16T14:52:55;4.53;;;1.80;;
13649;SDS011;6898;50.918;4.688;2022-10-16T14:55:26;5.25;;;1.73;;
13649;SDS011;6898;50.918;4.688;2022-10-16T14:57:54;5.10;;;1.70;;
13649;SDS011;6898;50.918;4.688;2022-10-16T15:00:23;3.92;;;1.58;;
13649;SDS011;6898;50.918;4.688;2022-10-16T15:02:52;2.50;;;1.50;;
13649;SDS011;6898;50.918;4.688;2022-10-16T15:05:23;5.85;;;1.85;;
13649;SDS011;6898;50.918;4.688;2022-10-16T15:07:52;5.47;;;1.88;;
13649;SDS011;6898;50.918;4.688;2022-10-16T15:10:25;4.65;;;1.50;;
13649;SDS011;6898;50.918;4.688;2022-10-16T15:12:54;4.97;;;1.73;;
13649;SDS011;6898;50.918;4.688;2022-10-16T15:18:09;6.03;;;1.80;;
13649;SDS011;6898;50.918;4.688;2022-10-16T15:20:41;5.15;;;1.98;;
13649;SDS011;6898;50.918;4.688;2022-10-16T15:23:12;4.32;;;1.80;;
13649;SDS011;6898;50.918;4.688;2022-10-16T15:25:42;3.90;;;1.80;;
13649;SDS011;6898;50.918;4.688;2022-10-16T15:28:14;4.28;;;1.95;;
13649;SDS011;6898;50.918;4.688;2022-10-16T15:30:43;4.97;;;2.00;;